createdAt,value
2022-07-29T09:28:37.045Z,78889.19
2022-07-29T09:31:09.727Z,78870.88
2022-07-29T09:33:42.959Z,78859.25
2022-07-29T09:36:13.693Z,78854.50
2022-07-29T09:38:43.941Z,78870.19
2022-07-29T09:41:14.812Z,78855.59
2022-07-29T09:44:01.305Z,78876.63
2022-07-29T09:46:33.178Z,78866.09
2022-07-29T09:49:11.692Z,78874.63
2022-07-29T09:51:44.020Z,78868.16
2022-07-29T09:54:30.762Z,78876.06
2022-07-29T09:57:00.768Z,78868.13
2022-07-29T09:59:31.310Z,78862.03
2022-07-29T10:02:07.281Z,78874.50
2022-07-29T10:04:45.928Z,78871.78
2022-07-29T10:07:16.323Z,78857.16
2022-07-29T10:09:59.628Z,78862.88
2022-07-29T10:12:33.209Z,78863.28
2022-07-29T10:15:06.508Z,78850.53
2022-07-29T10:17:37.742Z,78853.06
2022-07-29T10:20:16.480Z,78860.63
2022-07-29T10:22:53.578Z,78844.38
2022-07-29T10:25:25.729Z,78841.66
2022-07-29T10:27:58.567Z,78848.31
2022-07-29T10:30:32.198Z,78820.50
2022-07-29T10:33:22.211Z,78822.91
2022-07-29T10:36:04.795Z,78830.34
2022-07-29T10:38:45.832Z,78826.16
2022-07-29T10:41:53.571Z,78822.06
2022-07-29T10:44:27.847Z,78825.16
2022-07-29T10:46:59.465Z,78804.41
2022-07-29T10:49:32.902Z,78805.97
2022-07-29T10:52:19.614Z,78804.22
2022-07-29T10:54:56.505Z,78803.34
2022-07-29T10:57:54.030Z,78796.53
2022-07-29T11:00:35.271Z,78793.28
2022-07-29T11:03:10.893Z,78772.25
2022-07-29T11:06:10.911Z,78775.09
2022-07-29T11:08:44.509Z,78785.81
2022-07-29T11:11:24.050Z,78787.53
2022-07-29T11:14:01.748Z,78770.31
2022-07-29T11:17:03.200Z,78762.97
2022-07-29T11:19:40.316Z,78779.00
2022-07-29T11:22:18.069Z,78775.16
2022-07-29T11:24:50.168Z,78766.41
2022-07-29T11:27:28.504Z,78762.19
2022-07-29T11:30:06.945Z,78765.84
2022-07-29T11:35:53.715Z,78741.81
2022-07-29T11:38:33.570Z,78765.81
2022-07-29T11:41:31.861Z,78758.84
2022-07-29T11:44:04.205Z,78760.34
2022-07-29T11:47:00.725Z,78749.00
2022-07-29T11:49:33.671Z,78737.22
2022-07-29T11:52:06.048Z,78739.22
2022-07-29T11:54:57.709Z,78726.38
2022-07-29T11:57:36.207Z,78734.09
2022-07-29T12:00:18.603Z,78722.06
2022-07-29T12:02:51.013Z,78716.19
2022-07-29T12:05:36.205Z,78722.75
2022-07-29T12:08:30.046Z,78722.72
2022-07-29T12:11:00.476Z,78725.81
2022-07-29T12:13:43.242Z,78711.63
2022-07-29T12:16:14.884Z,78689.91
2022-07-29T12:18:45.761Z,78708.09
2022-07-29T12:21:16.326Z,78723.81
2022-07-29T12:24:04.797Z,78718.00
2022-07-29T12:26:51.901Z,78715.94
2022-07-29T12:29:34.668Z,78701.47
2022-07-29T12:32:14.416Z,78711.03
2022-07-29T12:34:46.912Z,78699.00
2022-07-29T12:37:17.895Z,78725.38
2022-07-29T12:39:50.719Z,78710.31
2022-07-29T12:42:21.024Z,78705.63
2022-07-29T12:44:56.084Z,78727.16
2022-07-29T12:47:26.541Z,78700.56
2022-07-29T12:50:20.209Z,78720.75
2022-07-29T12:52:53.343Z,78694.69
2022-07-29T12:55:48.221Z,78722.03
2022-07-29T12:58:42.751Z,78730.00
2022-07-29T13:01:16.977Z,78730.22
2022-07-29T13:03:56.969Z,78735.84
2022-07-29T13:06:50.974Z,78740.31
2022-07-29T13:09:26.829Z,78734.28
2022-07-29T13:11:57.987Z,78744.22
2022-07-29T13:14:37.089Z,78733.47
2022-07-29T13:17:25.614Z,78746.91
2022-07-29T13:20:11.083Z,78751.94
2022-07-29T13:22:49.487Z,78739.25
2022-07-29T13:25:32.796Z,78715.16
2022-07-29T13:28:05.287Z,78724.38
2022-07-29T13:30:36.539Z,78724.69
2022-07-29T13:33:15.403Z,78713.41
2022-07-29T13:35:46.725Z,78733.88
2022-07-29T13:38:18.306Z,78741.16
2022-07-29T13:40:48.964Z,78746.03
2022-07-29T13:43:20.086Z,78734.56
2022-07-29T13:45:51.324Z,78727.25
2022-07-29T13:48:22.160Z,78710.88
2022-07-29T13:50:53.263Z,78738.44
2022-07-29T13:53:27.162Z,78755.22
2022-07-29T13:55:58.876Z,78766.09
2022-07-29T13:58:30.369Z,78736.75
2022-07-29T14:01:00.756Z,78756.56
2022-07-29T14:03:32.001Z,78760.06
2022-07-29T14:06:04.472Z,78766.84
2022-07-29T14:08:35.346Z,78730.34
2022-07-29T14:11:07.045Z,78775.63
2022-07-29T14:13:38.743Z,78759.91
2022-07-29T14:16:10.582Z,78760.06
2022-07-29T14:18:41.423Z,78763.34
2022-07-29T14:21:12.466Z,78773.22
2022-07-29T14:23:43.906Z,78747.78
2022-07-29T14:26:15.889Z,78747.41
2022-07-29T14:28:53.101Z,78753.28
2022-07-29T14:31:25.317Z,78778.19
2022-07-29T14:33:58.834Z,78783.19
2022-07-29T14:36:31.565Z,78788.03
2022-07-29T14:39:02.719Z,78784.56
2022-07-29T14:41:33.602Z,78796.66
2022-07-29T14:44:05.279Z,78802.25
2022-07-29T14:46:35.745Z,78805.91
2022-07-29T14:49:06.491Z,78768.50
2022-07-29T14:51:40.425Z,78778.56
2022-07-29T14:54:12.141Z,78783.44
2022-07-29T14:56:46.711Z,78803.94
2022-07-29T14:59:18.841Z,78789.50
2022-07-29T15:01:49.487Z,78824.41
2022-07-29T15:04:21.122Z,78814.81
2022-07-29T15:06:53.051Z,78830.19
2022-07-29T15:09:23.559Z,78799.25
2022-07-29T15:11:55.831Z,78803.06
2022-07-29T15:14:27.482Z,78808.38
2022-07-29T15:16:57.897Z,78824.31
2022-07-29T15:19:29.212Z,78833.16
2022-07-29T15:22:01.220Z,78807.22
2022-07-29T15:24:32.031Z,78777.50
2022-07-29T15:27:03.283Z,78827.53
2022-07-29T15:29:34.493Z,78834.66
2022-07-29T15:32:04.868Z,78841.25
2022-07-29T15:34:36.566Z,78822.03
2022-07-29T15:37:07.885Z,78837.97
2022-07-29T15:39:40.448Z,78832.53
2022-07-29T15:42:11.589Z,78845.88
2022-07-29T15:44:41.878Z,78809.66
2022-07-29T15:47:12.544Z,78822.72
2022-07-29T15:49:49.372Z,78823.31
2022-07-29T15:52:26.051Z,78832.91
2022-07-29T15:54:59.285Z,78841.50
2022-07-29T15:57:31.259Z,78858.09
2022-07-29T16:00:02.205Z,78866.50
2022-07-29T16:02:37.720Z,78864.22
2022-07-29T16:05:12.851Z,78870.19
2022-07-29T16:07:45.479Z,78867.56
2022-07-29T16:10:16.916Z,78841.81
2022-07-29T16:12:46.780Z,78856.16
2022-07-29T16:15:17.212Z,78871.09
2022-07-29T16:17:48.723Z,78877.63
2022-07-29T16:20:19.423Z,78855.03
2022-07-29T16:22:52.403Z,78866.53
2022-07-29T16:25:57.112Z,78861.09
2022-07-29T16:28:22.720Z,78879.81
2022-07-29T16:30:53.976Z,78880.41
2022-07-29T16:33:25.122Z,78867.81
2022-07-29T16:35:55.763Z,78883.50
2022-07-29T16:38:27.119Z,78844.56
2022-07-29T16:40:57.347Z,78880.09
2022-07-29T16:43:28.538Z,78885.50
2022-07-29T16:45:58.984Z,78870.03
2022-07-29T16:48:30.625Z,78870.63
2022-07-29T16:51:04.401Z,78878.63
2022-07-29T16:53:36.909Z,78858.91
2022-07-29T16:56:08.477Z,78881.97
2022-07-29T16:58:44.176Z,78887.44
2022-07-29T17:01:15.131Z,78887.44
2022-07-29T17:04:06.724Z,78867.19
2022-07-29T17:06:39.086Z,78878.44
2022-07-29T17:09:12.780Z,78873.56
2022-07-29T17:11:52.911Z,78852.13
2022-07-29T17:14:32.880Z,78873.06
2022-07-29T17:17:04.650Z,78878.13
2022-07-29T17:19:44.407Z,78869.69
2022-07-29T17:22:19.307Z,78874.94
2022-07-29T17:24:51.007Z,78880.41
2022-07-29T17:27:23.874Z,78862.09
2022-07-29T17:30:01.682Z,78872.72
2022-07-29T17:32:39.567Z,78848.47
2022-07-29T17:35:29.513Z,78852.78
2022-07-29T17:38:01.733Z,78866.38
2022-07-29T17:40:34.444Z,78836.84
2022-07-29T17:43:07.155Z,78849.66
2022-07-29T17:45:49.627Z,78861.28
2022-07-29T17:48:22.902Z,78867.88
2022-07-29T17:50:56.249Z,78850.91
2022-07-29T17:53:27.459Z,78838.47
2022-07-29T17:56:00.609Z,78855.97
2022-07-29T17:58:32.622Z,78828.50
2022-07-29T18:01:04.940Z,78823.13
2022-07-29T18:03:35.686Z,78848.84
2022-07-29T18:06:08.869Z,78839.03
2022-07-29T18:08:41.287Z,78863.19
2022-07-29T18:11:14.908Z,78862.25
2022-07-29T18:13:45.739Z,78846.31
2022-07-29T18:16:16.234Z,78856.78
2022-07-29T18:18:48.068Z,78827.22
2022-07-29T18:21:37.569Z,78862.16
2022-07-29T18:24:09.798Z,78863.66
2022-07-29T18:26:40.628Z,78840.50
2022-07-29T18:29:13.199Z,78856.38
2022-07-29T18:31:43.946Z,78831.31
2022-07-29T18:34:15.105Z,78853.03
2022-07-29T18:36:47.346Z,78851.91
2022-07-29T18:39:20.228Z,78855.00
2022-07-29T18:41:53.046Z,78837.84
2022-07-29T18:44:25.237Z,78835.56
2022-07-29T18:46:57.486Z,78831.56
2022-07-29T18:49:29.355Z,78826.50
2022-07-29T18:52:00.789Z,78821.84
2022-07-29T18:54:33.186Z,78819.91
2022-07-29T18:57:54.921Z,78838.09
2022-07-29T18:59:56.057Z,78783.56
2022-07-29T19:02:26.618Z,78810.31
2022-07-29T19:04:58.638Z,78801.50
2022-07-29T19:07:31.418Z,78794.41
2022-07-29T19:10:02.485Z,78814.50
2022-07-29T19:12:33.875Z,78813.59
2022-07-29T19:15:05.607Z,78791.88
2022-07-29T19:17:39.165Z,78790.72
2022-07-29T19:20:11.348Z,78752.88
2022-07-29T19:22:43.508Z,78815.38
2022-07-29T19:25:13.680Z,78803.88
2022-07-29T19:27:46.878Z,78802.09
2022-07-29T19:30:18.305Z,78733.19
2022-07-29T19:32:51.783Z,78821.94
2022-07-29T19:35:34.665Z,78814.25
2022-07-29T19:38:06.452Z,78817.53
2022-07-29T19:40:37.086Z,78832.06
2022-07-29T19:43:51.209Z,78821.84
2022-07-29T19:46:00.988Z,78827.06
2022-07-29T19:48:31.812Z,78791.78
2022-07-29T19:51:02.305Z,78798.75
2022-07-29T19:53:32.613Z,78799.47
2022-07-29T19:56:03.388Z,78784.03
2022-07-29T19:58:35.678Z,78809.44
2022-07-29T20:01:10.284Z,78811.38
2022-07-29T20:03:46.475Z,78788.75
2022-07-29T20:06:17.883Z,78786.91
2022-07-29T20:08:50.044Z,78810.41
2022-07-29T20:11:20.770Z,78795.78
2022-07-29T20:13:51.521Z,78781.59
2022-07-29T20:16:25.444Z,78805.50
2022-07-29T20:18:58.225Z,78803.28
2022-07-29T20:21:29.668Z,78801.44
2022-07-29T20:24:03.362Z,78794.16
2022-07-29T20:26:34.082Z,78790.72
2022-07-29T20:29:07.206Z,78742.41
2022-07-29T20:31:38.146Z,78798.00
2022-07-29T20:34:09.162Z,78792.13
2022-07-29T20:36:41.203Z,78729.31
2022-07-29T20:39:12.881Z,78784.88
2022-07-29T20:41:45.264Z,78762.47
2022-07-29T20:44:16.704Z,78763.47
2022-07-29T20:46:51.982Z,78740.53
2022-07-29T20:49:23.198Z,78725.19
2022-07-29T20:51:54.501Z,78700.03
2022-07-29T20:54:28.881Z,78771.88
2022-07-29T20:57:00.294Z,78763.47
2022-07-29T20:59:33.523Z,78762.72
2022-07-29T21:02:05.764Z,78749.66
2022-07-29T21:04:38.463Z,78761.59
2022-07-29T21:07:09.002Z,78756.69
2022-07-29T21:09:40.704Z,78734.41
2022-07-29T21:12:13.102Z,78720.47
2022-07-29T21:14:49.503Z,78746.31
2022-07-29T21:17:22.808Z,78711.59
2022-07-29T21:19:55.424Z,78728.44
2022-07-29T21:22:26.562Z,78731.88
2022-07-29T21:25:00.627Z,78733.03
2022-07-29T21:27:49.982Z,78687.88
2022-07-29T21:30:21.542Z,78731.97
2022-07-29T21:32:52.691Z,78738.66
2022-07-29T21:36:06.948Z,78732.44
2022-07-29T21:38:19.042Z,78742.22
2022-07-29T21:40:51.522Z,78738.00
2022-07-29T21:43:23.684Z,78720.22
2022-07-29T21:45:56.054Z,78726.56
2022-07-29T21:48:28.998Z,78700.53
2022-07-29T21:50:59.912Z,78725.50
2022-07-29T21:53:33.593Z,78718.31
2022-07-29T21:56:06.029Z,78726.97
2022-07-29T21:58:41.267Z,78729.66
2022-07-29T22:01:12.194Z,78706.75
2022-07-29T22:03:43.742Z,78726.97
2022-07-29T22:06:18.433Z,78724.88
2022-07-29T22:08:50.823Z,78724.75
2022-07-29T22:11:22.559Z,78716.69
2022-07-29T22:13:53.503Z,78722.66
2022-07-29T22:16:24.190Z,78713.75
2022-07-29T22:18:54.463Z,78739.91
2022-07-29T22:21:26.244Z,78708.44
2022-07-29T22:23:57.891Z,78734.44
2022-07-29T22:26:28.880Z,78734.91
2022-07-29T22:28:59.053Z,78687.34
2022-07-29T22:31:29.432Z,78717.94
2022-07-29T22:34:00.595Z,78695.19
2022-07-29T22:36:30.663Z,78697.06
2022-07-29T22:39:01.008Z,78699.50
2022-07-29T22:41:31.442Z,78702.19
2022-07-29T22:44:02.122Z,78730.34
2022-07-29T22:46:32.418Z,78715.56
2022-07-29T22:49:07.175Z,78693.94
2022-07-29T22:51:37.310Z,78662.28
2022-07-29T22:54:09.815Z,78676.81
2022-07-29T22:56:40.683Z,78672.88
2022-07-29T22:59:11.282Z,78710.06
2022-07-29T23:01:42.636Z,78694.97
2022-07-29T23:04:13.306Z,78706.72
2022-07-29T23:06:44.698Z,78674.03
2022-07-29T23:09:15.307Z,78695.16
2022-07-29T23:11:47.636Z,78707.22
2022-07-29T23:14:18.641Z,78705.38
2022-07-29T23:16:49.244Z,78692.56
2022-07-29T23:19:20.589Z,78678.19
2022-07-29T23:21:51.802Z,78710.16
2022-07-29T23:24:21.935Z,78712.28
2022-07-29T23:26:51.848Z,78714.97
2022-07-29T23:29:23.439Z,78687.94
2022-07-29T23:31:55.757Z,78712.81
2022-07-29T23:34:27.337Z,78710.78
2022-07-29T23:36:57.796Z,78713.94
2022-07-29T23:39:30.068Z,78730.25
2022-07-29T23:42:01.017Z,78705.72
2022-07-29T23:44:31.762Z,78721.22
2022-07-29T23:47:02.124Z,78730.91
